Time;durP1;ratioP1;P1;durP2;ratioP2;P2;SDS_P1;SDS_P2;PMS_P1;PMS_P2;Temp;Humidity;BMP_temperature;BMP_pressure;BME280_temperature;BME280_humidity;BME280_pressure;Samples;Min_cycle;Max_cycle;Signal;HPM_P1;HPM_P2
2022/05/17 00:00:13;;;;;;;2.35;2.13;;;;;;;17.07;41.93;94117.94;4964963;28;20133;-74
2022/05/17 00:02:39;;;;;;;2.40;2.13;;;;;;;17.04;42.16;94119.44;4958159;28;20041;-74
2022/05/17 00:05:05;;;;;;;4.30;1.88;;;;;;;17.01;42.30;94120.09;4967797;28;20057;-74
2022/05/17 00:07:30;;;;;;;3.83;2.30;;;;;;;16.86;42.37;94094.03;4964964;28;20133;-73
2022/05/17 00:09:56;;;;;;;3.90;2.20;;;;;;;16.80;42.56;94076.59;4971869;28;20489;-73
2022/05/17 00:12:21;;;;;;;6.45;2.50;;;;;;;16.99;42.23;94103.56;4961878;28;20383;-74
2022/05/17 00:14:46;;;;;;;5.88;1.70;;;;;;;17.03;41.85;94117.09;4960371;28;20030;-74
2022/05/17 00:17:12;;;;;;;2.88;1.88;;;;;;;16.94;42.32;94103.81;4968760;28;20418;-74
2022/05/17 00:19:37;;;;;;;2.38;1.85;;;;;;;16.98;42.36;94110.06;4983439;28;20431;-75
2022/05/17 00:22:03;;;;;;;3.75;1.92;;;;;;;16.95;42.29;94113.44;4992271;28;20097;-74
2022/05/17 00:24:29;;;;;;;2.90;1.70;;;;;;;16.94;42.33;94113.78;4996910;28;20061;-73
2022/05/17 00:26:54;;;;;;;3.83;2.00;;;;;;;16.89;42.25;94103.28;4996276;28;20092;-71
2022/05/17 00:29:20;;;;;;;2.97;1.98;;;;;;;16.90;42.41;94110.25;4997251;28;20093;-74
2022/05/17 00:31:47;;;;;;;3.83;1.98;;;;;;;16.80;42.52;94087.34;4985021;28;20068;-73
2022/05/17 00:34:13;;;;;;;3.35;1.88;;;;;;;16.93;42.61;94107.63;4996367;28;20081;-74
2022/05/17 00:36:39;;;;;;;2.55;2.35;;;;;;;16.92;42.55;94108.75;4988346;28;20121;-74
2022/05/17 00:39:04;;;;;;;2.08;1.88;;;;;;;16.79;42.50;94096.53;4998610;28;20053;-74
2022/05/17 00:41:31;;;;;;;2.55;1.90;;;;;;;16.87;42.55;94111.69;4989225;28;20028;-74
2022/05/17 00:46:52;;;;;;;2.05;1.63;;;;;;;16.76;42.79;94097.22;4995706;28;20049;-74
2022/05/17 00:49:26;;;;;;;3.28;1.92;;;;;;;16.81;42.84;94106.94;4992900;28;20326;-73
2022/05/17 00:51:54;;;;;;;2.53;2.20;;;;;;;16.77;42.72;94103.38;4994407;28;20038;-73
2022/05/17 00:54:20;;;;;;;2.42;2.15;;;;;;;16.61;42.84;94095.28;4990434;28;20040;-74
2022/05/17 00:56:55;;;;;;;3.42;1.80;;;;;;;16.69;43.03;94113.16;4985723;28;20029;-73
2022/05/17 00:59:20;;;;;;;6.55;2.33;;;;;;;16.50;43.56;94113.03;4996597;28;20033;-71
2022/05/17 01:01:46;;;;;;;4.13;2.60;;;;;;;16.38;43.42;94092.38;4993313;28;20068;-73
2022/05/17 01:04:18;;;;;;;3.53;2.03;;;;;;;16.39;43.57;94107.34;4991619;28;20038;-73
2022/05/17 01:06:47;;;;;;;2.88;2.50;;;;;;;16.24;44.05;94081.22;4997392;28;20069;-73
2022/05/17 01:09:13;;;;;;;3.70;2.13;;;;;;;16.34;43.81;94091.50;4991286;28;20026;-74
2022/05/17 01:11:39;;;;;;;7.25;2.38;;;;;;;16.26;43.92;94078.97;4980675;28;20502;-73
2022/05/17 01:16:50;;;;;;;4.43;1.75;;;;;;;16.33;43.79;94100.66;4974177;28;20265;-72
2022/05/17 01:19:16;;;;;;;2.83;2.33;;;;;;;16.35;43.75;94092.28;4988303;28;20034;-72
2022/05/17 01:21:42;;;;;;;3.70;2.15;;;;;;;16.25;44.00;94088.94;4994142;28;20513;-72
2022/05/17 01:24:07;;;;;;;2.67;1.90;;;;;;;16.19;43.77;94084.94;4983878;28;20558;-72
2022/05/17 01:26:42;;;;;;;3.83;2.40;;;;;;;16.19;43.97;94087.59;4984654;28;20034;-73
2022/05/17 01:29:10;;;;;;;3.05;2.15;;;;;;;16.13;44.00;94080.94;4990082;28;20117;-72
2022/05/17 01:31:38;;;;;;;2.17;1.95;;;;;;;15.95;44.08;94060.88;4991446;28;20045;-73
2022/05/17 01:34:06;;;;;;;2.45;2.10;;;;;;;16.07;44.14;94086.88;4991553;28;20073;-73
2022/05/17 01:36:32;;;;;;;3.25;2.72;;;;;;;16.07;44.39;94071.56;4999297;28;20026;-72
2022/05/17 01:38:58;;;;;;;102.32;8.18;;;;;;;16.16;44.02;94082.94;4982341;28;20030;-72
2022/05/17 01:41:25;;;;;;;2.55;1.85;;;;;;;16.10;44.36;94086.19;4977477;28;20080;-72
2022/05/17 01:43:51;;;;;;;2.67;2.22;;;;;;;16.07;44.00;94076.16;4988232;28;20561;-72
2022/05/17 01:46:16;;;;;;;3.40;1.90;;;;;;;16.09;44.37;94096.13;4996864;28;20108;-73
2022/05/17 01:48:42;;;;;;;3.35;2.42;;;;;;;16.07;44.66;94092.25;4979982;28;20034;-71
2022/05/17 01:51:09;;;;;;;5.22;3.33;;;;;;;16.00;45.14;94092.81;4998182;28;20026;-73
2022/05/17 01:53:35;;;;;;;3.58;2.80;;;;;;;15.82;45.21;94076.22;4984563;28;20040;-71
2022/05/17 01:56:02;;;;;;;3.55;3.05;;;;;;;15.87;45.63;94092.09;4992755;28;20063;-72
2022/05/17 01:58:28;;;;;;;3.10;2.80;;;;;;;15.76;45.54;94079.47;4984741;28;20042;-70
2022/05/17 02:00:53;;;;;;;3.70;3.08;;;;;;;15.81;45.90;94092.66;4987376;28;20470;-72
2022/05/17 02:03:19;;;;;;;5.85;2.92;;;;;;;15.64;46.00;94074.16;4970815;28;20038;-72
2022/05/17 02:05:44;;;;;;;5.25;2.47;;;;;;;15.75;45.52;94086.72;4976475;28;20117;-73
2022/05/17 02:08:10;;;;;;;3.50;2.72;;;;;;;15.58;45.79;94075.50;4971271;28;20041;-73
2022/05/17 02:10:35;;;;;;;2.55;2.22;;;;;;;15.59;45.70;94095.81;4975202;28;20152;-70
2022/05/17 02:13:00;;;;;;;7.28;2.42;;;;;;;15.61;45.83;94086.31;4989038;28;20550;-72
2022/05/17 02:15:27;;;;;;;2.67;2.42;;;;;;;15.55;45.70;94082.28;4993730;28;20026;-73
2022/05/17 02:17:53;;;;;;;3.13;2.42;;;;;;;15.59;46.03;94104.66;4966526;28;20107;-72
2022/05/17 02:20:19;;;;;;;4.28;2.85;;;;;;;15.55;46.05;94084.22;4968558;28;20038;-72
2022/05/17 02:22:45;;;;;;;4.97;2.88;;;;;;;15.48;46.07;94090.13;4962637;28;20038;-72
2022/05/17 02:25:11;;;;;;;4.25;2.78;;;;;;;15.60;46.19;94110.78;4981979;28;20049;-73
2022/05/17 02:27:38;;;;;;;3.30;2.92;;;;;;;15.41;46.27;94082.63;4987065;28;20050;-73
2022/05/17 02:30:09;;;;;;;4.82;2.72;;;;;;;15.34;46.38;94073.59;4987262;28;20038;-73
2022/05/17 02:32:34;;;;;;;4.00;2.63;;;;;;;15.46;46.33;94090.47;4991854;28;20068;-72
2022/05/17 02:35:00;;;;;;;4.10;3.17;;;;;;;15.35;46.42;94070.56;4987581;28;20488;-74
2022/05/17 02:37:26;;;;;;;3.28;2.67;;;;;;;15.47;46.53;94104.66;4983783;28;20486;-73
2022/05/17 02:39:51;;;;;;;4.63;2.70;;;;;;;15.44;46.26;94100.75;4985395;28;20508;-73
2022/05/17 02:42:17;;;;;;;3.08;2.42;;;;;;;15.44;46.47;94098.06;4996947;28;20038;-71
2022/05/17 02:44:42;;;;;;;2.95;2.60;;;;;;;15.46;46.25;94095.03;4985095;28;20121;-73
2022/05/17 02:47:09;;;;;;;4.25;2.72;;;;;;;15.44;46.16;94098.06;4993227;28;20215;-73
2022/05/17 02:49:34;;;;;;;7.20;2.35;;;;;;;15.43;46.23;94096.47;4973948;28;20530;-72
2022/05/17 02:52:01;;;;;;;4.25;2.90;;;;;;;15.27;46.29;94076.03;4976178;28;20054;-73
2022/05/17 02:54:27;;;;;;;4.47;2.47;;;;;;;15.29;46.07;94084.53;4969120;28;20542;-73
2022/05/17 02:56:52;;;;;;;4.30;2.53;;;;;;;15.30;46.06;94084.19;4970342;28;20026;-69
2022/05/17 02:59:19;;;;;;;5.43;3.28;;;;;;;15.39;46.11;94097.50;4969455;28;20641;-73
2022/05/17 03:01:45;;;;;;;3.88;3.13;;;;;;;15.14;46.21;94071.81;4968261;28;20038;-73
2022/05/17 03:04:13;;;;;;;4.20;2.33;;;;;;;15.30;46.38;94086.84;4968069;28;20046;-73
2022/05/17 03:06:39;;;;;;;6.88;3.30;;;;;;;15.36;46.19;94098.91;4972732;28;20338;-73
2022/05/17 03:09:05;;;;;;;3.42;2.35;;;;;;;15.33;46.28;94096.13;4979872;28;20064;-73
2022/05/17 03:11:30;;;;;;;3.55;2.90;;;;;;;15.24;46.38;94093.59;4994168;28;20034;-73
2022/05/17 03:13:58;;;;;;;3.65;2.60;;;;;;;15.21;46.30;94077.38;4992455;28;20367;-71
2022/05/17 03:16:33;;;;;;;3.80;2.67;;;;;;;15.27;46.36;94102.84;4992857;28;20489;-73
2022/05/17 03:18:59;;;;;;;3.80;2.55;;;;;;;15.25;46.50;94105.88;4995293;28;20061;-72
2022/05/17 03:21:25;;;;;;;2.95;2.28;;;;;;;15.22;46.36;94089.66;4984256;28;20041;-72
2022/05/17 03:23:51;;;;;;;3.47;2.10;;;;;;;15.25;46.67;94097.06;4988273;28;20025;-73
2022/05/17 03:26:16;;;;;;;5.90;2.33;;;;;;;15.16;46.79;94091.78;4994421;28;20034;-72
2022/05/17 03:28:41;;;;;;;4.28;2.00;;;;;;;15.22;46.63;94100.38;4981142;28;20080;-73
2022/05/17 03:31:08;;;;;;;2.72;2.00;;;;;;;15.12;47.09;94088.22;4990783;28;21955;-72
2022/05/17 03:33:34;;;;;;;3.28;2.70;;;;;;;15.17;47.00;94087.97;4990781;28;20120;-72
2022/05/17 03:35:59;;;;;;;2.80;2.30;;;;;;;15.19;47.17;94091.13;4994429;28;20033;-73
2022/05/17 03:38:25;;;;;;;3.72;2.33;;;;;;;15.24;47.57;94109.66;4995292;28;20030;-73
2022/05/17 03:40:51;;;;;;;2.97;2.20;;;;;;;15.15;47.48;94084.09;4976899;28;20063;-72
2022/05/17 03:43:16;;;;;;;3.45;2.50;;;;;;;15.25;47.25;94105.09;4985775;28;20040;-72
2022/05/17 03:45:42;;;;;;;4.57;2.83;;;;;;;15.16;47.59;94081.06;4993616;28;20042;-72
2022/05/17 03:48:13;;;;;;;6.30;2.80;;;;;;;15.19;47.85;94093.03;4991425;28;20172;-71
2022/05/17 03:50:39;;;;;;;2.53;2.17;;;;;;;15.19;48.11;94091.13;4995647;28;20305;-73
2022/05/17 03:53:05;;;;;;;4.10;2.42;;;;;;;15.37;48.19;94113.91;4996257;28;20041;-72
2022/05/17 03:55:31;;;;;;;3.50;3.05;;;;;;;15.38;48.39;94110.09;4988601;28;20514;-72
2022/05/17 03:57:57;;;;;;;3.40;3.10;;;;;;;15.39;47.66;94122.38;4993992;28;20054;-72
2022/05/17 04:00:23;;;;;;;4.40;3.20;;;;;;;15.45;47.63;94114.91;4985389;28;20128;-73
2022/05/17 04:02:49;;;;;;;5.15;2.97;;;;;;;15.51;48.15;94110.13;4993388;28;20441;-73
2022/05/17 04:05:16;;;;;;;4.78;3.10;;;;;;;15.63;48.13;94115.47;4993051;28;20034;-73
2022/05/17 04:07:41;;;;;;;5.38;2.80;;;;;;;15.64;48.22;94100.97;4988435;28;20049;-73
2022/05/17 04:10:10;;;;;;;5.65;3.25;;;;;;;15.73;47.53;94099.72;4994735;28;20034;-71
2022/05/17 04:12:35;;;;;;;5.75;3.83;;;;;;;15.41;47.20;94114.78;4985770;28;20394;-72
2022/05/17 04:15:02;;;;;;;3.88;3.45;;;;;;;15.13;47.39;94076.38;4995007;28;20032;-72
2022/05/17 04:17:27;;;;;;;4.68;3.70;;;;;;;15.59;47.45;94107.34;4986801;28;20473;-74
2022/05/17 04:19:53;;;;;;;5.53;3.40;;;;;;;15.81;47.32;94106.84;4986131;28;20038;-72
2022/05/17 04:22:18;;;;;;;8.95;4.13;;;;;;;15.70;46.85;94086.97;4995706;28;20065;-73
2022/05/17 04:24:45;;;;;;;10.48;4.35;;;;;;;15.67;47.06;94106.41;4988182;28;20033;-71
2022/05/17 04:27:14;;;;;;;8.98;4.40;;;;;;;15.39;47.98;94106.31;4991086;28;20041;-69
2022/05/17 04:29:41;;;;;;;7.78;4.60;;;;;;;15.80;47.69;94120.56;4996729;28;20024;-71
2022/05/17 04:32:07;;;;;;;6.72;4.70;;;;;;;15.85;47.53;94123.03;4991527;28;20729;-72
2022/05/17 04:34:33;;;;;;;4.07;3.65;;;;;;;16.06;46.74;94112.16;4986392;28;20058;-72
2022/05/17 04:36:58;;;;;;;9.13;3.88;;;;;;;16.43;45.97;94124.34;4994983;28;20128;-73
2022/05/17 04:39:26;;;;;;;7.18;4.30;;;;;;;16.37;46.04;94125.72;4992017;28;20041;-69
2022/05/17 04:41:52;;;;;;;7.35;4.03;;;;;;;16.44;45.99;94114.38;4995807;28;20030;-73
2022/05/17 04:44:17;;;;;;;7.07;4.28;;;;;;;16.68;45.68;94119.63;4985486;28;20560;-74
2022/05/17 04:46:43;;;;;;;7.78;4.40;;;;;;;16.49;45.74;94125.66;4986358;28;20346;-74
2022/05/17 04:49:08;;;;;;;6.85;4.57;;;;;;;16.39;46.03;94128.84;4981026;28;20127;-74
2022/05/17 04:51:34;;;;;;;6.93;4.57;;;;;;;16.40;46.02;94126.94;4994595;28;20145;-74
2022/05/17 04:54:00;;;;;;;10.05;5.30;;;;;;;15.90;47.43;94125.47;4990865;28;20041;-73
2022/05/17 04:56:26;;;;;;;8.23;5.03;;;;;;;16.49;46.69;94130.25;4980778;28;20831;-74
2022/05/17 04:58:51;;;;;;;6.50;5.32;;;;;;;16.30;46.17;94115.56;4998867;28;20037;-74
2022/05/17 05:01:17;;;;;;;8.10;5.55;;;;;;;16.57;45.89;94126.66;4992210;28;20489;-72
2022/05/17 05:03:42;;;;;;;8.10;4.82;;;;;;;16.99;45.60;94121.59;4993126;28;20046;-73
2022/05/17 05:06:07;;;;;;;10.88;4.97;;;;;;;17.29;44.76;94119.28;4990207;28;20521;-73
2022/05/17 05:08:33;;;;;;;6.15;5.35;;;;;;;17.27;44.75;94118.84;4992417;28;20157;-73
2022/05/17 05:10:58;;;;;;;8.13;5.32;;;;;;;16.69;45.53;94118.50;4985632;28;20737;-73
2022/05/17 05:13:25;;;;;;;9.63;5.60;;;;;;;16.96;45.54;94106.19;4997053;28;20042;-72
2022/05/17 05:15:51;;;;;;;9.65;7.03;;;;;;;17.55;44.71;94116.84;4997170;28;20410;-73
2022/05/17 05:18:17;;;;;;;8.95;5.82;;;;;;;17.51;44.23;94119.44;4988285;28;20045;-73
2022/05/17 05:20:43;;;;;;;6.60;5.18;;;;;;;17.88;44.25;94116.44;4997170;28;20549;-73
2022/05/17 05:23:09;;;;;;;8.95;5.05;;;;;;;18.07;44.13;94121.88;4977604;28;20674;-73
2022/05/17 05:25:36;;;;;;;6.75;5.10;;;;;;;17.87;44.56;94102.19;4979105;28;21000;-74
2022/05/17 05:28:03;;;;;;;9.48;4.78;;;;;;;18.22;43.31;94112.97;4982369;28;20107;-72
2022/05/17 05:30:29;;;;;;;8.18;5.32;;;;;;;18.48;43.15;94106.91;4994311;28;20553;-73
2022/05/17 05:32:56;;;;;;;5.93;4.97;;;;;;;18.57;42.35;94112.09;4983397;28;20309;-73
2022/05/17 05:35:21;;;;;;;6.72;6.03;;;;;;;18.20;43.05;94103.66;4986998;28;20601;-74
2022/05/17 05:37:48;;;;;;;7.57;4.72;;;;;;;18.63;41.71;94127.59;4985355;28;20036;-73
2022/05/17 05:40:14;;;;;;;12.43;5.20;;;;;;;18.27;43.13;94119.97;4977862;28;20066;-73
2022/05/17 05:42:40;;;;;;;13.93;6.05;;;;;;;18.35;42.72;94127.84;4975265;28;20089;-73
2022/05/17 05:45:07;;;;;;;6.40;4.35;;;;;;;18.57;42.11;94123.66;4974865;28;20034;-74
2022/05/17 05:47:32;;;;;;;8.05;5.13;;;;;;;18.02;42.74;94131.00;4987886;28;20048;-73
2022/05/17 05:49:57;;;;;;;11.75;5.38;;;;;;;18.44;42.27;94130.31;4974488;28;20041;-73
2022/05/17 05:52:23;;;;;;;9.48;4.70;;;;;;;18.85;41.83;94126.91;4995160;28;20132;-73
2022/05/17 05:54:48;;;;;;;9.07;5.18;;;;;;;18.79;42.23;94131.03;4991147;28;20441;-73
2022/05/17 05:57:14;;;;;;;7.72;4.82;;;;;;;18.86;41.26;94120.41;4992202;28;20594;-73
2022/05/17 05:59:39;;;;;;;10.40;5.47;;;;;;;19.08;41.13;94123.44;4992760;28;20025;-72
2022/05/17 06:02:06;;;;;;;5.45;4.88;;;;;;;19.04;41.52;94119.91;4991061;28;20038;-73
2022/05/17 06:04:31;;;;;;;6.22;4.97;;;;;;;18.98;42.33;94121.34;4979284;28;20113;-73
2022/05/17 06:06:57;;;;;;;7.25;5.22;;;;;;;18.98;41.66;94124.03;4971560;28;20088;-73
2022/05/17 06:09:24;;;;;;;15.65;5.93;;;;;;;19.25;41.02;94128.38;4979595;28;20053;-74
2022/05/17 06:11:49;;;;;;;8.07;4.97;;;;;;;19.47;41.10;94116.81;4978923;28;20025;-73
2022/05/17 06:14:15;;;;;;;7.07;5.10;;;;;;;19.32;40.93;94125.78;4994126;28;20045;-73
2022/05/17 06:16:40;;;;;;;8.32;5.47;;;;;;;19.25;41.38;94106.81;4982995;28;20338;-73
2022/05/17 06:19:06;;;;;;;7.00;4.65;;;;;;;19.71;40.72;94111.03;4992557;28;20521;-73
2022/05/17 06:21:32;;;;;;;9.25;4.47;;;;;;;19.78;40.61;94120.38;4993700;28;20034;-73
2022/05/17 06:23:58;;;;;;;8.02;5.80;;;;;;;20.00;39.78;94106.00;4992140;28;20871;-73
2022/05/17 06:26:23;;;;;;;8.80;5.00;;;;;;;20.16;39.20;94109.31;4963718;28;20117;-73
2022/05/17 06:28:49;;;;;;;5.78;4.60;;;;;;;20.26;39.45;94116.03;4965156;28;20410;-73
2022/05/17 06:31:14;;;;;;;6.15;4.28;;;;;;;19.62;39.59;94104.31;4974829;28;20476;-74
2022/05/17 06:33:39;;;;;;;7.45;4.43;;;;;;;19.91;39.72;94121.72;4958132;28;20049;-73
2022/05/17 06:36:05;;;;;;;9.15;4.43;;;;;;;20.14;38.92;94123.19;4970768;28;20101;-73
2022/05/17 06:38:31;;;;;;;6.50;4.72;;;;;;;20.17;38.83;94127.91;4969382;28;20510;-73
2022/05/17 06:40:57;;;;;;;8.50;5.15;;;;;;;20.17;38.43;94106.28;4970869;28;20444;-73
2022/05/17 06:43:22;;;;;;;5.93;4.22;;;;;;;20.24;38.26;94110.25;4970143;28;20093;-73
2022/05/17 06:45:48;;;;;;;9.32;4.28;;;;;;;20.31;39.06;94110.31;4968241;28;20101;-73
2022/05/17 06:48:14;;;;;;;6.68;4.50;;;;;;;20.47;38.95;94114.38;4967014;28;20025;-74
2022/05/17 06:50:40;;;;;;;5.13;4.50;;;;;;;20.49;38.23;94109.38;4969096;28;20083;-74
2022/05/17 06:53:07;;;;;;;4.70;4.13;;;;;;;20.57;39.55;94108.34;4974533;28;20087;-74
2022/05/17 06:55:33;;;;;;;8.07;5.47;;;;;;;20.65;39.28;94092.19;4961921;28;20039;-73
2022/05/17 06:57:58;;;;;;;6.28;3.85;;;;;;;20.41;39.07;94088.06;4969484;28;20700;-72
2022/05/17 07:00:23;;;;;;;5.43;4.85;;;;;;;20.79;38.35;94103.13;4968249;28;20034;-74
2022/05/17 07:02:49;;;;;;;9.50;4.47;;;;;;;20.31;38.74;94111.09;4966816;28;20510;-73
2022/05/17 07:05:15;;;;;;;5.40;4.53;;;;;;;20.54;38.66;94108.28;4973031;28;20450;-74
2022/05/17 07:07:40;;;;;;;9.32;5.05;;;;;;;20.68;38.39;94104.97;4980428;28;20045;-75
2022/05/17 07:13:09;;;;;;;7.40;4.75;;;;;;;19.70;40.17;94079.78;4988768;28;20088;-73
2022/05/17 07:15:41;;;;;;;8.52;4.15;;;;;;;20.25;39.39;94069.34;4981114;28;20122;-73
2022/05/17 07:18:07;;;;;;;5.97;5.30;;;;;;;20.71;38.94;94096.91;4965866;28;20088;-73
2022/05/17 07:20:33;;;;;;;7.13;3.88;;;;;;;20.80;37.88;94099.28;4966551;28;20033;-74
2022/05/17 07:22:59;;;;;;;6.28;4.57;;;;;;;20.81;37.98;94090.81;4969090;28;20039;-74
2022/05/17 07:25:24;;;;;;;8.05;4.53;;;;;;;21.03;38.60;94089.13;4980866;28;20112;-74
2022/05/17 07:27:49;;;;;;;8.23;4.32;;;;;;;21.02;37.76;94091.03;4989258;28;20111;-73
2022/05/17 07:30:15;;;;;;;4.15;3.83;;;;;;;21.07;38.35;94089.94;4996645;28;20591;-73
2022/05/17 07:32:40;;;;;;;15.93;5.57;;;;;;;20.36;39.08;94070.25;4989913;28;20026;-74
2022/05/17 07:35:09;;;;;;;5.68;3.80;;;;;;;20.24;39.57;94078.59;4979142;28;20046;-73
2022/05/17 07:37:36;;;;;;;10.23;4.95;;;;;;;20.36;39.52;94086.47;4972430;28;20068;-74
2022/05/17 07:40:03;;;;;;;10.70;5.30;;;;;;;20.68;38.71;94083.34;4967223;28;20046;-73
2022/05/17 07:42:28;;;;;;;6.72;5.30;;;;;;;20.81;38.48;94090.03;4970175;28;20121;-74
2022/05/17 07:44:54;;;;;;;6.22;5.00;;;;;;;20.64;38.53;94082.50;4989867;28;20087;-73
2022/05/17 07:47:19;;;;;;;10.88;4.82;;;;;;;20.79;38.91;94078.81;4991801;28;20749;-74
2022/05/17 07:49:45;;;;;;;8.65;4.30;;;;;;;20.70;38.72;94054.78;4993636;28;20083;-73
2022/05/17 07:52:11;;;;;;;5.38;3.78;;;;;;;20.66;39.00;94069.44;4985885;28;20096;-72
2022/05/17 07:54:37;;;;;;;7.75;4.25;;;;;;;20.80;39.45;94061.44;4990645;28;20037;-73
2022/05/17 07:57:04;;;;;;;7.03;4.72;;;;;;;20.69;38.40;94055.16;4992189;28;20057;-74
2022/05/17 07:59:30;;;;;;;4.25;3.80;;;;;;;21.23;37.29;94074.22;4990163;28;20395;-73
2022/05/17 08:01:56;;;;;;;8.60;4.78;;;;;;;20.94;37.33;94064.31;4985928;28;20044;-75
2022/05/17 08:04:23;;;;;;;7.40;4.88;;;;;;;20.88;37.85;94057.69;4986300;28;20038;-73
2022/05/17 08:06:52;;;;;;;5.90;4.75;;;;;;;21.38;37.43;94065.09;4990356;28;20121;-73
2022/05/17 08:09:17;;;;;;;5.63;4.28;;;;;;;21.52;37.24;94050.09;4992651;28;20038;-73
2022/05/17 08:11:43;;;;;;;10.30;5.53;;;;;;;21.00;36.83;94063.63;4994947;28;20457;-74
2022/05/17 08:14:09;;;;;;;7.90;4.43;;;;;;;20.68;38.01;94048.97;4988677;28;20124;-73
2022/05/17 08:16:34;;;;;;;6.88;4.20;;;;;;;20.83;37.83;94044.47;4987372;28;20083;-74
2022/05/17 08:19:00;;;;;;;6.20;4.68;;;;;;;21.05;37.28;94065.19;4989675;28;20602;-72
2022/05/17 08:21:26;;;;;;;3.88;3.25;;;;;;;21.21;36.42;94063.03;4987017;28;20697;-74
2022/05/17 08:23:51;;;;;;;10.18;4.55;;;;;;;21.35;36.52;94057.72;4983505;28;20033;-73
2022/05/17 08:29:01;;;;;;;6.72;4.65;;;;;;;21.72;37.29;94052.19;4990922;28;20053;-73
2022/05/17 08:31:26;;;;;;;7.25;4.28;;;;;;;21.71;36.23;94036.31;4976929;28;20603;-74
2022/05/17 08:33:52;;;;;;;6.57;4.90;;;;;;;21.47;37.40;94040.41;4993505;28;20038;-72
2022/05/17 08:36:18;;;;;;;13.40;4.95;;;;;;;21.29;37.40;94034.88;4990438;28;20041;-73
2022/05/17 08:38:45;;;;;;;4.82;3.50;;;;;;;21.60;36.80;94044.41;4975384;28;20123;-73
2022/05/17 08:41:39;;;;;;;37.83;6.70;;;;;;;21.67;34.09;94044.44;4961232;28;20073;-75
2022/05/17 08:44:13;;;;;;;8.65;3.53;;;;;;;21.40;34.41;94043.84;4969246;28;20081;-73
2022/05/17 08:47:09;;;;;;;6.80;4.22;;;;;;;21.81;33.69;94043.72;4976446;28;20654;-73
2022/05/17 08:49:55;;;;;;;5.10;3.35;;;;;;;21.71;32.69;94041.75;4969024;28;20064;-73
2022/05/17 08:52:23;;;;;;;8.25;3.60;;;;;;;21.99;33.35;94041.13;4971961;28;20049;-73
2022/05/17 08:54:55;;;;;;;5.63;3.42;;;;;;;22.23;31.81;94038.56;4975651;28;20049;-74
2022/05/17 08:57:31;;;;;;;7.05;2.85;;;;;;;22.39;31.16;94034.75;4970496;28;20471;-74
2022/05/17 08:59:59;;;;;;;5.45;4.10;;;;;;;22.09;31.47;94030.34;4974987;28;20046;-73
2022/05/17 09:02:40;;;;;;;4.32;2.83;;;;;;;22.13;30.24;94033.84;4968600;28;20039;-74
2022/05/17 09:05:46;;;;;;;4.07;3.35;;;;;;;22.19;30.28;94032.31;4967235;28;20518;-74
2022/05/17 09:08:20;;;;;;;3.22;2.55;;;;;;;22.25;28.74;94033.53;4965629;28;20413;-73
2022/05/17 09:10:53;;;;;;;3.92;2.65;;;;;;;21.98;29.43;94029.53;4966129;28;20038;-74
2022/05/17 09:13:48;;;;;;;3.08;2.60;;;;;;;21.79;30.91;94027.88;4971749;28;20241;-71
2022/05/17 09:16:14;;;;;;;9.85;2.47;;;;;;;21.77;30.24;94021.28;4961066;28;20061;-74
2022/05/17 09:18:43;;;;;;;2.85;2.15;;;;;;;21.91;29.84;94015.94;4964360;28;20466;-73
2022/05/17 09:21:41;;;;;;;2.63;2.33;;;;;;;21.93;29.46;94018.28;4970974;28;20022;-74
2022/05/17 09:24:12;;;;;;;4.80;2.33;;;;;;;22.15;29.12;94017.97;4964096;28;20042;-73
2022/05/17 09:26:37;;;;;;;5.03;2.13;;;;;;;22.35;31.03;94023.09;4969556;28;20600;-74
2022/05/17 09:29:15;;;;;;;4.07;2.72;;;;;;;22.12;29.62;94021.47;4967266;28;20050;-74
2022/05/17 09:31:49;;;;;;;4.07;2.13;;;;;;;22.19;29.37;94007.94;4975270;28;20072;-73
2022/05/17 09:34:27;;;;;;;2.77;1.93;;;;;;;22.24;28.95;94018.44;4967177;28;20102;-75
2022/05/17 09:36:53;;;;;;;3.67;2.25;;;;;;;22.57;29.37;94011.19;4967651;28;20268;-74
2022/05/17 09:39:26;;;;;;;3.90;2.60;;;;;;;22.76;29.82;94010.03;4976078;28;20039;-71
2022/05/17 09:41:54;;;;;;;7.00;2.05;;;;;;;22.81;29.18;94007.72;4972463;28;20380;-73
2022/05/17 09:44:23;;;;;;;6.68;2.15;;;;;;;22.46;29.91;94003.03;4972402;28;20057;-71
2022/05/17 09:46:51;;;;;;;3.55;2.40;;;;;;;22.54;30.36;94001.09;4967870;28;20054;-73
2022/05/17 09:52:33;;;;;;;2.05;1.60;;;;;;;23.09;29.21;93986.06;4974050;28;20521;-74
2022/05/17 09:55:15;;;;;;;3.10;1.88;;;;;;;22.85;28.72;93991.47;4969141;28;20046;-74
2022/05/17 09:58:08;;;;;;;3.05;2.13;;;;;;;23.08;28.09;93981.81;4968676;28;20578;-73
2022/05/17 10:00:43;;;;;;;1.20;1.05;;;;;;;23.25;25.57;93980.25;4959612;28;20579;-74
2022/05/17 10:03:32;;;;;;;1.52;1.17;;;;;;;23.36;26.29;93972.09;4970725;28;20053;-73
2022/05/17 10:06:07;;;;;;;1.30;1.20;;;;;;;23.29;26.32;93967.44;4974186;28;20530;-73
2022/05/17 10:09:08;;;;;;;2.80;1.05;;;;;;;23.48;26.23;93974.41;4970408;28;20117;-73
2022/05/17 10:11:46;;;;;;;1.30;1.20;;;;;;;23.55;25.55;93977.13;4976316;28;20042;-74
2022/05/17 10:14:36;;;;;;;3.03;1.40;;;;;;;23.41;25.56;93966.28;4973264;28;20058;-74
2022/05/17 10:17:19;;;;;;;1.42;1.27;;;;;;;23.14;26.11;93966.69;4973572;28;20042;-73
2022/05/17 10:19:51;;;;;;;1.73;1.23;;;;;;;23.14;25.61;93966.69;4965552;28;20093;-73
2022/05/17 10:22:23;;;;;;;5.82;1.52;;;;;;;23.22;25.31;93958.56;4968659;28;20603;-73
2022/05/17 10:24:55;;;;;;;1.75;1.23;;;;;;;23.24;25.22;93958.94;4969613;28;20053;-73
2022/05/17 10:27:43;;;;;;;1.40;1.30;;;;;;;22.98;26.61;93951.97;4961765;28;20054;-74
2022/05/17 10:30:17;;;;;;;1.50;1.20;;;;;;;23.12;26.97;93955.44;4971428;28;20034;-73
2022/05/17 10:33:01;;;;;;;5.18;1.40;;;;;;;23.12;26.87;93955.44;4976160;28;20073;-74
2022/05/17 10:35:43;;;;;;;1.23;1.10;;;;;;;23.37;25.96;93938.34;4988502;28;20053;-73
2022/05/17 10:38:21;;;;;;;2.13;1.45;;;;;;;23.34;26.71;93936.44;4988964;28;20046;-74
2022/05/17 10:40:50;;;;;;;1.50;1.20;;;;;;;23.43;26.63;93931.38;4986604;28;20095;-74
2022/05/17 10:43:19;;;;;;;2.05;1.75;;;;;;;23.31;26.71;93926.38;4991149;28;20056;-74
2022/05/17 10:45:47;;;;;;;3.22;1.40;;;;;;;23.47;26.96;93921.28;4987188;28;20042;-73
2022/05/17 10:48:29;;;;;;;1.98;1.20;;;;;;;23.45;26.80;93927.13;4971304;28;20050;-73
2022/05/17 10:51:03;;;;;;;3.15;1.75;;;;;;;23.40;26.11;93924.81;4975936;28;20025;-72
2022/05/17 10:53:39;;;;;;;2.30;1.23;;;;;;;23.24;26.72;93899.25;4983646;28;20459;-73
2022/05/17 10:56:19;;;;;;;2.65;1.40;;;;;;;23.48;26.63;93914.69;4976101;28;20281;-72
2022/05/17 10:59:06;;;;;;;2.38;1.80;;;;;;;23.57;26.65;93907.69;4971575;28;21388;-74
2022/05/17 11:02:09;;;;;;;3.17;1.35;;;;;;;23.60;27.39;93913.53;4969825;28;20057;-73
2022/05/17 11:04:58;;;;;;;3.58;1.88;;;;;;;23.47;27.01;93905.00;4966014;28;20145;-72
2022/05/17 11:07:36;;;;;;;3.50;1.30;;;;;;;23.42;27.98;93894.53;4965343;28;20085;-74
2022/05/17 11:10:10;;;;;;;2.28;1.23;;;;;;;23.55;28.17;93895.69;4970892;28;20042;-73
2022/05/17 11:12:48;;;;;;;3.15;1.70;;;;;;;23.53;28.01;93895.31;4969933;28;20046;-74
2022/05/17 11:15:18;;;;;;;1.58;1.48;;;;;;;23.24;27.89;93889.16;4968931;28;20374;-74
2022/05/17 11:17:54;;;;;;;3.50;1.60;;;;;;;23.50;29.26;93882.53;4981521;28;20030;-73
2022/05/17 11:20:55;;;;;;;2.38;1.95;;;;;;;23.57;28.69;93886.00;4983487;28;20085;-74
2022/05/17 11:23:45;;;;;;;1.98;1.45;;;;;;;23.62;28.62;93876.66;4963276;28;20608;-73
2022/05/17 11:26:27;;;;;;;1.65;1.13;;;;;;;23.75;29.17;93864.22;4964629;28;20046;-73
2022/05/17 11:29:01;;;;;;;1.98;1.55;;;;;;;23.53;28.54;93868.16;4963434;28;20512;-72
2022/05/17 11:31:50;;;;;;;2.42;1.83;;;;;;;23.38;29.04;93861.97;4967632;28;20042;-73
2022/05/17 11:34:35;;;;;;;3.35;1.60;;;;;;;23.62;28.40;93868.50;4974378;28;20041;-73
2022/05/17 11:37:05;;;;;;;2.53;2.33;;;;;;;23.82;28.08;93872.31;4983781;28;20053;-74
2022/05/17 11:39:31;;;;;;;2.53;1.40;;;;;;;23.99;27.94;93866.03;4989606;28;20034;-76
2022/05/17 11:42:33;;;;;;;1.80;1.30;;;;;;;24.27;27.56;93861.59;4981786;28;20116;-74
2022/05/17 11:45:24;;;;;;;2.50;1.27;;;;;;;24.38;28.66;93848.72;4919931;28;20605;-76
2022/05/17 11:47:57;;;;;;;1.73;1.35;;;;;;;24.34;28.39;93824.28;4957515;28;20141;-75
2022/05/17 11:50:28;;;;;;;2.92;1.60;;;;;;;24.47;27.16;93849.03;4963407;28;20538;-74
2022/05/17 11:53:22;;;;;;;4.40;1.60;;;;;;;24.78;27.41;93848.00;4986420;28;20522;-75
2022/05/17 11:56:12;;;;;;;2.35;1.40;;;;;;;24.88;27.53;93845.63;4982490;28;20050;-75
2022/05/17 11:58:38;;;;;;;6.38;1.60;;;;;;;24.87;28.57;93839.41;4965948;28;20448;-75